Time;durP1;ratioP1;P1;durP2;ratioP2;P2;SDS_P1;SDS_P2;PMS_P1;PMS_P2;Temp;Humidity;BMP_temperature;BMP_pressure;BME280_temperature;BME280_humidity;BME280_pressure;Samples;Min_cycle;Max_cycle;Signal;HPM_P1;HPM_P2
2021/08/23 00:02:13;;;;;;;;;;;;;;;-144.99;100.00;52374.72;4998266;28;20358;-75
2021/08/23 00:04:41;;;;;;;;;;;;;;;-144.99;100.00;52427.72;5010416;28;19989;-76
2021/08/23 00:07:07;;;;;;;;;;;;;;;-144.99;100.00;52350.25;5010204;28;20059;-76
2021/08/23 00:09:34;;;;;;;;;;;;;;;-144.99;100.00;52391.03;5015898;28;20064;-77
2021/08/23 00:12:01;;;;;;;;;;;;;;;-144.99;100.00;52399.19;5010471;28;20019;-76
2021/08/23 00:14:27;;;;;;;;;;;;;;;-144.99;100.00;52340.06;5011236;28;20327;-77
2021/08/23 00:16:53;;;;;;;;;;;;;;;-144.99;100.00;52388.97;5012695;28;19985;-78
2021/08/23 00:19:20;;;;;;;;;;;;;;;-144.99;100.00;52350.25;5016314;28;19985;-78
2021/08/23 00:21:50;;;;;;;;;;;;;;;-144.99;100.00;52376.75;5019560;28;19994;-77
2021/08/23 00:24:22;;;;;;;;;;;;;;;-144.99;100.00;52391.03;5011596;28;20200;-77
2021/08/23 00:26:49;;;;;;;;;;;;;;;-144.99;100.00;52384.91;5011478;28;20083;-78
2021/08/23 00:29:15;;;;;;;;;;;;;;;-144.99;100.00;52419.56;5008548;28;20273;-77
2021/08/23 00:31:41;;;;;;;;;;;;;;;-144.99;100.00;52376.75;5009822;28;20021;-78
2021/08/23 00:34:08;;;;;;;;;;;;;;;-144.99;100.00;52362.50;5018130;28;19982;-78
2021/08/23 00:36:34;;;;;;;;;;;;;;;-144.99;100.00;52344.16;5009935;28;19977;-77
2021/08/23 00:39:02;;;;;;;;;;;;;;;-144.99;100.00;52346.19;5010136;28;19994;-76
2021/08/23 00:41:31;;;;;;;;;;;;;;;-144.99;100.00;52386.94;5010262;28;20002;-77
2021/08/23 00:43:57;;;;;;;;;;;;;;;-144.99;100.00;52370.63;5010386;28;19981;-76
2021/08/23 00:46:23;;;;;;;;;;;;;;;-144.99;100.00;52433.81;5010322;28;19982;-76
2021/08/23 00:48:50;;;;;;;;;;;;;;;-144.99;100.00;52382.88;5006973;28;19986;-77
2021/08/23 00:51:16;;;;;;;;;;;;;;;-144.99;100.00;52378.78;5014416;28;19994;-75
2021/08/23 00:53:43;;;;;;;;;;;;;;;-144.99;100.00;52376.75;5013455;28;20001;-77
2021/08/23 00:56:11;;;;;;;;;;;;;;;-144.99;100.00;52374.72;5011876;28;20445;-76
2021/08/23 00:58:38;;;;;;;;;;;;;;;-144.99;100.00;52403.25;5009772;28;19982;-75
2021/08/23 01:01:07;;;;;;;;;;;;;;;-144.99;100.00;52358.41;4999799;28;20002;-76
2021/08/23 01:03:35;;;;;;;;;;;;;;;-144.99;100.00;52391.03;5007560;28;20446;-76
2021/08/23 01:06:02;;;;;;;;;;;;;;;-144.99;100.00;52395.09;5009304;28;19978;-77
2021/08/23 01:08:32;;;;;;;;;;;;;;;-144.99;100.00;52395.09;5014322;28;20089;-76
2021/08/23 01:11:00;;;;;;;;;;;;;;;-144.99;100.00;52378.78;5009644;28;20506;-76
2021/08/23 01:13:28;;;;;;;;;;;;;;;-144.99;100.00;52439.94;5009472;28;19989;-77
2021/08/23 01:15:55;;;;;;;;;;;;;;;-144.99;100.00;52378.78;5013621;28;20461;-76
2021/08/23 01:18:22;;;;;;;;;;;;;;;-144.99;100.00;52370.63;5015334;28;19982;-77
2021/08/23 01:20:50;;;;;;;;;;;;;;;-144.99;100.00;52403.25;5023304;28;19998;-77
2021/08/23 01:23:17;;;;;;;;;;;;;;;-144.99;100.00;52370.63;5013173;28;20052;-76
2021/08/23 01:25:46;;;;;;;;;;;;;;;-144.99;100.00;52370.63;5014165;28;19982;-76
2021/08/23 01:28:16;;;;;;;;;;;;;;;-144.99;100.00;52370.63;5013997;28;19982;-77
2021/08/23 01:30:55;;;;;;;;;;;;;;;-144.99;100.00;52391.03;5016091;28;20607;-76
2021/08/23 01:33:23;;;;;;;;;;;;;;;-144.99;100.00;52415.47;5016651;28;19989;-79
2021/08/23 01:35:49;;;;;;;;;;;;;;;-144.99;100.00;52366.56;5016737;28;20523;-77
2021/08/23 01:38:16;;;;;;;;;;;;;;;-144.99;100.00;52415.47;5013639;28;20020;-77
2021/08/23 01:40:42;;;;;;;;;;;;;;;-144.99;100.00;52374.72;5013131;28;19982;-76
2021/08/23 01:43:09;;;;;;;;;;;;;;;-144.99;100.00;52378.78;5013283;28;19989;-76
2021/08/23 01:45:35;;;;;;;;;;;;;;;-144.99;100.00;52391.03;5013313;28;20581;-77
2021/08/23 01:48:01;;;;;;;;;;;;;;;-144.99;100.00;52344.16;5012675;28;19982;-78
2021/08/23 01:50:29;;;;;;;;;;;;;;;-144.99;100.00;52372.69;5016758;28;20046;-77
2021/08/23 01:52:55;;;;;;;;;;;;;;;-144.99;100.00;52391.03;5018529;28;20434;-78
2021/08/23 01:55:22;;;;;;;;;;;;;;;-144.99;100.00;52382.88;5015710;28;19997;-77
2021/08/23 01:57:48;;;;;;;;;;;;;;;-144.99;100.00;52419.56;5013256;28;20461;-76
2021/08/23 02:00:15;;;;;;;;;;;;;;;-144.99;100.00;52421.59;5011771;28;19985;-76
2021/08/23 02:02:41;;;;;;;;;;;;;;;-144.99;100.00;52391.03;5012933;28;20006;-77
2021/08/23 02:05:08;;;;;;;;;;;;;;;-144.99;100.00;52419.56;5012199;28;20456;-76
2021/08/23 02:07:35;;;;;;;;;;;;;;;-144.99;100.00;52378.78;5014817;28;20233;-75
2021/08/23 02:10:02;;;;;;;;;;;;;;;-144.99;100.00;52423.63;5014732;28;19986;-77
2021/08/23 02:12:28;;;;;;;;;;;;;;;-144.99;100.00;52427.72;5012491;28;20096;-75
2021/08/23 02:14:54;;;;;;;;;;;;;;;-144.99;100.00;52395.09;5012549;28;19985;-75
2021/08/23 02:17:21;;;;;;;;;;;;;;;-144.99;100.00;52393.06;5018355;28;20053;-76
2021/08/23 02:19:47;;;;;;;;;;;;;;;-144.99;100.00;52419.56;5015159;28;19982;-75
2021/08/23 02:22:13;;;;;;;;;;;;;;;-144.99;100.00;52417.53;5019686;28;20000;-76
2021/08/23 02:24:41;;;;;;;;;;;;;;;-144.99;100.00;52444.03;5012648;28;20403;-76
2021/08/23 02:27:07;;;;;;;;;;;;;;;-144.99;100.00;52391.03;5012263;28;19991;-76
2021/08/23 02:29:34;;;;;;;;;;;;;;;-144.99;100.00;52395.09;5025487;28;19969;-75
2021/08/23 02:32:00;;;;;;;;;;;;;;;-144.99;100.00;52391.03;5027463;28;19994;-75
2021/08/23 02:34:26;;;;;;;;;;;;;;;-144.99;100.00;52407.31;5020505;28;20001;-77
2021/08/23 02:36:53;;;;;;;;;;;;;;;-144.99;100.00;52427.72;5012088;28;20029;-76
2021/08/23 02:39:19;;;;;;;;;;;;;;;-144.99;100.00;52391.03;5011785;28;19980;-76
2021/08/23 02:41:53;;;;;;;;;;;;;;;-144.99;100.00;52382.88;5012417;28;20002;-76
2021/08/23 02:44:19;;;;;;;;;;;;;;;-144.99;100.00;52399.19;5012119;28;20029;-76
2021/08/23 02:46:45;;;;;;;;;;;;;;;-144.99;100.00;52350.25;5011574;28;19980;-77
2021/08/23 02:49:12;;;;;;;;;;;;;;;-144.99;100.00;52370.63;5005801;28;20089;-75
2021/08/23 02:51:38;;;;;;;;;;;;;;;-144.99;100.00;52403.25;5007964;28;19986;-75
2021/08/23 02:54:04;;;;;;;;;;;;;;;-144.99;100.00;52413.44;5012279;28;20010;-75
2021/08/23 02:56:31;;;;;;;;;;;;;;;-144.99;100.00;52395.09;5014359;28;20117;-77
2021/08/23 02:58:58;;;;;;;;;;;;;;;-144.99;100.00;52407.31;5011721;28;20019;-76
2021/08/23 03:01:24;;;;;;;;;;;;;;;-144.99;100.00;52423.63;5010074;28;19979;-76
2021/08/23 03:03:51;;;;;;;;;;;;;;;-144.99;100.00;52391.03;5011850;28;20182;-76
2021/08/23 03:06:17;;;;;;;;;;;;;;;-144.99;100.00;52374.72;5010579;28;19960;-77
2021/08/23 03:08:43;;;;;;;;;;;;;;;-144.99;100.00;52407.31;5016362;28;20366;-77
2021/08/23 03:11:11;;;;;;;;;;;;;;;-144.99;100.00;52431.78;5011294;28;19995;-77
2021/08/23 03:13:37;;;;;;;;;;;;;;;-144.99;100.00;52439.94;5013584;28;20029;-81
2021/08/23 03:16:06;;;;;;;;;;;;;;;-144.99;100.00;52395.09;5017500;28;19996;-82
2021/08/23 03:18:32;;;;;;;;;;;;;;;-144.99;100.00;52370.63;5025730;28;19980;-81
2021/08/23 03:20:58;;;;;;;;;;;;;;;-144.99;100.00;52421.59;5025735;28;20042;-81
2021/08/23 03:23:25;;;;;;;;;;;;;;;-144.99;100.00;52441.97;5013482;28;20458;-80
2021/08/23 03:25:51;;;;;;;;;;;;;;;-144.99;100.00;52407.31;5013907;28;19991;-80
2021/08/23 03:28:17;;;;;;;;;;;;;;;-144.99;100.00;52407.31;5013433;28;20006;-80
2021/08/23 03:30:44;;;;;;;;;;;;;;;-144.99;100.00;52391.03;5012151;28;19976;-83
2021/08/23 03:33:12;;;;;;;;;;;;;;;-144.99;100.00;52413.44;5021014;28;19948;-81
2021/08/23 03:35:38;;;;;;;;;;;;;;;-144.99;100.00;52437.91;5010019;28;19998;-81
2021/08/23 03:38:05;;;;;;;;;;;;;;;-144.99;100.00;52407.31;5012178;28;19996;-81
2021/08/23 03:40:33;;;;;;;;;;;;;;;-144.99;100.00;52386.94;5011363;28;19987;-79
2021/08/23 03:42:59;;;;;;;;;;;;;;;-144.99;100.00;52378.78;5046016;23;20078;-79
2021/08/23 03:45:26;;;;;;;;;;;;;;;-144.99;100.00;52441.97;5014436;28;20446;-80
2021/08/23 03:47:52;;;;;;;;;;;;;;;-144.99;100.00;52399.19;5038531;28;19948;-80
2021/08/23 03:50:21;;;;;;;;;;;;;;;-144.99;100.00;52407.31;5050716;28;20029;-79
2021/08/23 03:52:48;;;;;;;;;;;;;;;-144.99;100.00;52415.47;5041478;28;19976;-79
2021/08/23 03:55:14;;;;;;;;;;;;;;;-144.99;100.00;52407.31;5037978;28;20299;-79
2021/08/23 03:57:41;;;;;;;;;;;;;;;-144.99;100.00;52413.44;5035313;28;20357;-79
2021/08/23 04:00:08;;;;;;;;;;;;;;;-144.99;100.00;52380.84;5034488;28;20005;-79
2021/08/23 04:02:35;;;;;;;;;;;;;;;-144.99;100.00;52413.44;5034288;28;20069;-77
2021/08/23 04:05:01;;;;;;;;;;;;;;;-144.99;100.00;52427.72;5032835;28;20029;-79
2021/08/23 04:07:29;;;;;;;;;;;;;;;-144.99;100.00;52427.72;5042452;28;20074;-79
2021/08/23 04:09:56;;;;;;;;;;;;;;;-144.99;100.00;52431.78;5035137;28;19953;-79
2021/08/23 04:12:22;;;;;;;;;;;;;;;-144.99;100.00;52395.09;5032285;28;19973;-78
2021/08/23 04:14:48;;;;;;;;;;;;;;;-144.99;100.00;52403.25;5032701;28;20440;-79
2021/08/23 04:17:15;;;;;;;;;;;;;;;-144.99;100.00;52456.25;5038429;28;19971;-79
2021/08/23 04:19:41;;;;;;;;;;;;;;;-144.99;100.00;52431.78;5036961;28;20025;-79
2021/08/23 04:22:10;;;;;;;;;;;;;;;-144.99;100.00;52399.19;5038645;28;20250;-74
2021/08/23 04:24:38;;;;;;;;;;;;;;;-144.99;100.00;52382.88;5030392;28;19968;-73
2021/08/23 04:27:05;;;;;;;;;;;;;;;-144.99;100.00;52437.91;5030054;28;20040;-74
2021/08/23 04:29:31;;;;;;;;;;;;;;;-144.99;100.00;52417.53;5028085;28;19950;-74
2021/08/23 04:31:58;;;;;;;;;;;;;;;-144.99;100.00;52444.03;5030736;28;20066;-72
2021/08/23 04:34:24;;;;;;;;;;;;;;;-144.99;100.00;52415.47;5037940;28;20278;-73
2021/08/23 04:36:51;;;;;;;;;;;;;;;-144.99;100.00;52397.13;5029512;28;20518;-74
2021/08/23 04:39:17;;;;;;;;;;;;;;;-144.99;100.00;52427.72;5029810;28;19952;-74
2021/08/23 04:41:45;;;;;;;;;;;;;;;-144.99;100.00;52427.72;5030202;28;20045;-73
2021/08/23 04:44:11;;;;;;;;;;;;;;;-144.99;100.00;52450.13;5030443;28;19947;-73
2021/08/23 04:46:38;;;;;;;;;;;;;;;-144.99;100.00;52454.22;5031762;28;19995;-79
2021/08/23 04:49:05;;;;;;;;;;;;;;;-144.99;100.00;52407.31;5027542;28;19966;-81
2021/08/23 04:51:31;;;;;;;;;;;;;;;-144.99;100.00;52419.56;5038140;28;20046;-78
2021/08/23 04:53:58;;;;;;;;;;;;;;;-144.99;100.00;52407.31;5031397;28;19954;-77
2021/08/23 04:56:24;;;;;;;;;;;;;;;-144.99;100.00;52423.63;5033516;28;19966;-78
2021/08/23 04:58:52;;;;;;;;;;;;;;;-144.99;100.00;52382.88;5030423;28;19961;-77
2021/08/23 05:01:19;;;;;;;;;;;;;;;-144.99;100.00;52407.31;5018968;28;20341;-77
2021/08/23 05:03:45;;;;;;;;;;;;;;;-144.99;100.00;52393.06;5033768;28;20037;-79
2021/08/23 05:06:12;;;;;;;;;;;;;;;-144.99;100.00;52376.75;3984630;28;10000719;-78
2021/08/23 05:08:38;;;;;;;;;;;;;;;-144.99;100.00;52409.38;5032616;28;19974;-79
2021/08/23 05:11:05;;;;;;;;;;;;;;;-144.99;100.00;52431.78;5027804;28;20001;-77
2021/08/23 05:13:32;;;;;;;;;;;;;;;-144.99;100.00;52439.94;5027689;28;20005;-74
2021/08/23 05:16:00;;;;;;;;;;;;;;;-144.99;100.00;52444.03;5027346;28;20021;-79
2021/08/23 05:18:26;;;;;;;;;;;;;;;-144.99;100.00;52413.44;5053188;28;19972;-78
2021/08/23 05:20:52;;;;;;;;;;;;;;;-144.99;100.00;52399.19;5040509;28;19978;-77
2021/08/23 05:23:19;;;;;;;;;;;;;;;-144.99;100.00;52399.19;5040034;28;20049;-76
2021/08/23 05:25:45;;;;;;;;;;;;;;;-144.99;100.00;52395.09;5028757;28;19983;-76
2021/08/23 05:28:12;;;;;;;;;;;;;;;-144.99;100.00;52374.72;5027337;28;20053;-78
2021/08/23 05:30:38;;;;;;;;;;;;;;;-144.99;100.00;52429.75;5027209;28;20059;-79
2021/08/23 05:33:06;;;;;;;;;;;;;;;-144.99;100.00;52391.03;5035152;28;19991;-76
2021/08/23 05:35:33;;;;;;;;;;;;;;;-144.99;100.00;52423.63;5028501;28;20021;-77
2021/08/23 05:37:59;;;;;;;;;;;;;;;-144.99;100.00;52407.31;5027719;28;20005;-77
2021/08/23 05:40:29;;;;;;;;;;;;;;;-144.99;100.00;52415.47;5026867;28;20370;-76
2021/08/23 05:42:56;;;;;;;;;;;;;;;-144.99;100.00;52407.31;5027461;28;20015;-77
2021/08/23 05:45:22;;;;;;;;;;;;;;;-144.99;100.00;52403.25;5027266;28;20066;-75
2021/08/23 05:47:49;;;;;;;;;;;;;;;-144.99;100.00;52407.31;5027040;28;20077;-77
2021/08/23 05:50:17;;;;;;;;;;;;;;;-144.99;100.00;52386.94;5028700;28;20199;-76
2021/08/23 05:52:43;;;;;;;;;;;;;;;-144.99;100.00;52352.28;5038455;28;20303;-77
2021/08/23 05:55:09;;;;;;;;;;;;;;;-144.99;100.00;52382.88;5029683;28;20020;-77
2021/08/23 05:57:36;;;;;;;;;;;;;;;-144.99;100.00;52370.63;5027813;28;20199;-78
2021/08/23 06:00:02;;;;;;;;;;;;;;;-144.99;100.00;52374.72;5027143;28;20059;-76
2021/08/23 06:02:29;;;;;;;;;;;;;;;-144.99;100.00;52382.88;5030733;28;20058;-77
2021/08/23 06:04:56;;;;;;;;;;;;;;;-144.99;100.00;52384.91;5030368;28;19974;-77
2021/08/23 06:07:24;;;;;;;;;;;;;;;-144.99;100.00;52366.56;5031696;28;20057;-77
2021/08/23 06:09:50;;;;;;;;;;;;;;;-144.99;100.00;52386.94;5033232;28;19991;-77
2021/08/23 06:12:17;;;;;;;;;;;;;;;-144.99;100.00;52415.47;5030983;28;20032;-77
2021/08/23 06:14:43;;;;;;;;;;;;;;;-144.99;100.00;52403.25;5030265;28;19978;-77
2021/08/23 06:17:10;;;;;;;;;;;;;;;-144.99;100.00;52391.03;5029406;28;20620;-78
2021/08/23 06:19:36;;;;;;;;;;;;;;;-144.99;100.00;52372.69;5028327;28;19982;-76
2021/08/23 06:22:03;;;;;;;;;;;;;;;-144.99;100.00;52366.56;5041369;28;19964;-78
2021/08/23 06:24:31;;;;;;;;;;;;;;;-144.99;99.85;52362.50;5030213;28;19976;-78
2021/08/23 06:26:57;;;;;;;;;;;;;;;-144.99;99.06;52340.06;5029939;28;19988;-78
2021/08/23 06:29:24;;;;;;;;;;;;;;;-144.99;98.40;52346.19;5028320;28;20330;-78
2021/08/23 06:31:50;;;;;;;;;;;;;;;-144.99;97.58;52370.63;5034677;28;19987;-78
2021/08/23 06:34:16;;;;;;;;;;;;;;;-144.99;97.36;52362.50;5034441;28;20061;-79
2021/08/23 06:36:45;;;;;;;;;;;;;;;-144.99;96.77;52342.09;5029877;28;19971;-77
2021/08/23 06:39:11;;;;;;;;;;;;;;;-144.99;96.45;52344.16;5029871;28;20060;-77
2021/08/23 06:41:39;;;;;;;;;;;;;;;-144.99;95.95;52321.72;5029388;28;19967;-78
2021/08/23 06:44:06;;;;;;;;;;;;;;;-144.99;95.06;52354.34;5029906;28;19951;-78
2021/08/23 06:46:32;;;;;;;;;;;;;;;-144.99;94.45;52362.50;5030873;28;20268;-79
2021/08/23 06:48:59;;;;;;;;;;;;;;;-144.99;93.81;52356.38;5025531;28;20467;-77
2021/08/23 06:51:25;;;;;;;;;;;;;;;-144.99;93.13;52329.88;5043093;28;20053;-77
2021/08/23 06:53:52;;;;;;;;;;;;;;;-144.99;92.72;52376.75;5029307;28;19936;-77
2021/08/23 06:56:20;;;;;;;;;;;;;;;-144.99;92.44;52325.81;5031229;28;19948;-78
2021/08/23 06:58:48;;;;;;;;;;;;;;;-144.99;91.78;52366.56;5029245;28;19956;-76
2021/08/23 07:01:15;;;;;;;;;;;;;;;-144.99;91.12;52329.88;5028144;28;19955;-78
2021/08/23 07:03:41;;;;;;;;;;;;;;;-144.99;90.61;52350.25;5029158;28;20241;-77
2021/08/23 07:06:08;;;;;;;;;;;;;;;-144.99;90.09;52360.44;5021636;28;20386;-75
2021/08/23 07:08:34;;;;;;;;;;;;;;;-144.99;88.33;52354.34;5032959;28;20444;-75
2021/08/23 07:11:01;;;;;;;;;;;;;;;-144.99;88.23;52313.56;5029392;28;19959;-78
2021/08/23 07:13:28;;;;;;;;;;;;;;;-144.99;88.25;52336.00;5028483;28;20340;-79
2021/08/23 07:15:56;;;;;;;;;;;;;;;-144.99;87.77;52313.56;5030464;28;19954;-79
2021/08/23 07:18:22;;;;;;;;;;;;;;;-144.99;87.64;52333.94;5038829;28;20480;-77
2021/08/23 07:20:52;;;;;;;;;;;;;;;-144.99;87.03;52325.81;5038402;28;20061;-76
2021/08/23 07:23:18;;;;;;;;;;;;;;;-144.99;85.44;52336.00;5029435;28;20382;-78
2021/08/23 07:25:45;;;;;;;;;;;;;;;-144.99;85.17;52313.56;5029682;28;20099;-79
2021/08/23 07:28:13;;;;;;;;;;;;;;;-144.99;84.73;52321.72;5029270;28;20053;-78
2021/08/23 07:30:39;;;;;;;;;;;;;;;-144.99;84.57;52321.72;5028238;28;19977;-78
2021/08/23 07:33:07;;;;;;;;;;;;;;;-144.99;83.80;52303.38;5043216;28;20411;-80
2021/08/23 07:35:33;;;;;;;;;;;;;;;-144.99;83.17;52301.34;5032767;28;20551;-78
2021/08/23 07:38:00;;;;;;;;;;;;;;;-144.99;82.09;52297.25;5029043;28;19976;-80
2021/08/23 07:40:26;;;;;;;;;;;;;;;-144.99;82.32;52346.19;5029902;28;19954;-79
2021/08/23 07:42:54;;;;;;;;;;;;;;;-144.99;81.12;52317.66;5029171;28;20519;-79
2021/08/23 07:45:21;;;;;;;;;;;;;;;-144.99;80.29;52268.72;5029295;28;19946;-79
2021/08/23 07:47:48;;;;;;;;;;;;;;;-144.99;80.27;52315.59;5028990;28;19977;-78
2021/08/23 07:50:16;;;;;;;;;;;;;;;-144.99;79.46;52305.41;5029766;28;20413;-80
2021/08/23 07:52:42;;;;;;;;;;;;;;;-144.99;78.83;52268.72;5037471;28;20001;-78
2021/08/23 07:55:10;;;;;;;;;;;;;;;-144.99;77.90;52317.66;5033903;28;20441;-78
2021/08/23 07:57:40;;;;;;;;;;;;;;;-144.99;77.49;52295.22;5030719;28;19975;-78
2021/08/23 08:00:07;;;;;;;;;;;;;;;-144.99;76.79;52272.81;5028274;28;19997;-78
2021/08/23 08:02:34;;;;;;;;;;;;;;;-144.99;76.17;52285.03;5029328;28;19967;-78
2021/08/23 08:05:00;;;;;;;;;;;;;;;-144.99;74.23;52270.78;5029804;28;19940;-79
2021/08/23 08:07:28;;;;;;;;;;;;;;;-144.99;72.74;52321.72;5024839;28;20270;-80
2021/08/23 08:09:54;;;;;;;;;;;;;;;-144.99;73.26;52285.03;5033788;28;20357;-78
2021/08/23 08:12:21;;;;;;;;;;;;;;;-144.99;73.17;52236.13;5028763;28;19940;-77
2021/08/23 08:14:47;;;;;;;;;;;;;;;-144.99;72.75;52321.72;5028237;28;19979;-78
2021/08/23 08:17:14;;;;;;;;;;;;;;;-144.99;71.92;52260.56;5033107;28;19997;-79
2021/08/23 08:19:41;;;;;;;;;;;;;;;-144.99;70.75;52305.41;5032983;28;19980;-77
2021/08/23 08:22:08;;;;;;;;;;;;;;;-144.99;70.01;52285.03;5037870;28;20335;-78
2021/08/23 08:24:37;;;;;;;;;;;;;;;-144.99;68.93;52287.06;5027349;28;20049;-79
2021/08/23 08:27:04;;;;;;;;;;;;;;;-144.99;68.16;52264.66;5028190;28;20393;-79
2021/08/23 08:29:31;;;;;;;;;;;;;;;-144.99;68.22;52260.56;5027755;28;20002;-78
2021/08/23 08:31:58;;;;;;;;;;;;;;;-144.99;68.21;52311.53;5027967;28;20015;-79
2021/08/23 08:34:24;;;;;;;;;;;;;;;-144.99;67.53;52285.03;5028209;28;20016;-78
2021/08/23 08:36:51;;;;;;;;;;;;;;;-144.99;67.18;52295.22;5027987;28;20091;-77
2021/08/23 08:39:17;;;;;;;;;;;;;;;-144.99;67.58;52268.72;5027936;28;20435;-77
2021/08/23 08:41:45;;;;;;;;;;;;;;;-144.99;66.50;52264.66;5028111;28;20122;-77
2021/08/23 08:44:12;;;;;;;;;;;;;;;-144.99;65.97;52280.97;5028134;28;20018;-77
2021/08/23 08:46:39;;;;;;;;;;;;;;;-144.99;65.96;52272.81;5027962;28;20416;-77
2021/08/23 08:49:05;;;;;;;;;;;;;;;-144.99;65.41;52317.66;5027588;28;20077;-78
2021/08/23 08:51:35;;;;;;;;;;;;;;;-144.99;62.68;52232.03;5043171;28;20002;-77
2021/08/23 08:54:02;;;;;;;;;;;;;;;-144.99;62.64;52268.72;5027949;28;20003;-78
2021/08/23 08:56:29;;;;;;;;;;;;;;;-144.99;61.78;52232.03;5029844;28;19953;-77
2021/08/23 08:58:57;;;;;;;;;;;;;;;-144.99;62.56;52260.56;5025612;28;20430;-77
2021/08/23 09:01:23;;;;;;;;;;;;;;;-144.99;61.06;52256.50;5026218;28;20013;-78
2021/08/23 09:03:50;;;;;;;;;;;;;;;-144.99;59.76;52248.34;5027388;28;19971;-80
2021/08/23 09:06:16;;;;;;;;;;;;;;;-144.99;59.74;52250.38;5025146;28;19967;-77
2021/08/23 09:08:43;;;;;;;;;;;;;;;-144.99;59.71;52236.13;5027370;28;19967;-77
2021/08/23 09:11:11;;;;;;;;;;;;;;;-144.99;59.49;52219.81;5027315;28;20034;-77
2021/08/23 09:13:38;;;;;;;;;;;;;;;-144.99;59.47;52215.75;5027354;28;20047;-79
2021/08/23 09:16:06;;;;;;;;;;;;;;;-144.99;58.29;52260.56;5027414;28;19968;-77
2021/08/23 09:18:33;;;;;;;;;;;;;;;-144.99;57.95;52232.03;5026423;28;20420;-77
2021/08/23 09:21:00;;;;;;;;;;;;;;;-144.99;56.14;52191.28;5036126;28;19974;-78
2021/08/23 09:23:34;;;;;;;;;;;;;;;-144.99;54.98;52252.44;5026404;28;20074;-79
2021/08/23 09:26:05;;;;;;;;;;;;;;;-144.99;55.15;52211.66;5026678;28;20437;-81
2021/08/23 09:28:32;;;;;;;;;;;;;;;-144.99;54.68;52227.97;5026721;28;19973;-78
2021/08/23 09:30:59;;;;;;;;;;;;;;;-144.99;54.63;52203.50;5025313;28;20043;-78
2021/08/23 09:33:27;;;;;;;;;;;;;;;-144.99;52.91;52199.44;5034636;28;20389;-78
2021/08/23 09:35:53;;;;;;;;;;;;;;;-144.99;52.41;52248.34;5028728;28;19961;-78
2021/08/23 09:38:20;;;;;;;;;;;;;;;-144.99;53.04;52252.44;5030352;28;20461;-78
2021/08/23 09:40:47;;;;;;;;;;;;;;;-144.99;52.50;52236.13;5029830;28;19986;-78
2021/08/23 09:43:16;;;;;;;;;;;;;;;-144.99;52.57;52236.13;5030852;28;20115;-76
2021/08/23 09:45:44;;;;;;;;;;;;;;;-144.99;51.43;52203.50;5030636;28;19983;-78
2021/08/23 09:48:11;;;;;;;;;;;;;;;-144.99;50.85;52240.19;5029811;28;19999;-78
2021/08/23 09:50:40;;;;;;;;;;;;;;;-144.99;50.21;52223.88;5040509;28;19965;-78
2021/08/23 09:53:08;;;;;;;;;;;;;;;-144.99;49.55;52172.94;5034204;28;19957;-78
2021/08/23 09:55:35;;;;;;;;;;;;;;;-144.99;48.57;52191.28;5032332;28;19974;-78
2021/08/23 09:58:01;;;;;;;;;;;;;;;-144.99;47.12;52197.41;5030073;28;20067;-78
2021/08/23 10:00:28;;;;;;;;;;;;;;;-144.99;46.74;52240.19;5025807;28;19964;-78
2021/08/23 10:02:55;;;;;;;;;;;;;;;-144.99;46.66;52197.41;5022251;28;19989;-78
2021/08/23 10:05:22;;;;;;;;;;;;;;;-144.99;47.64;52187.19;5028704;28;19961;-79
2021/08/23 10:07:50;;;;;;;;;;;;;;;-144.99;47.66;52195.34;5027955;28;19941;-77
2021/08/23 10:10:18;;;;;;;;;;;;;;;-144.99;47.28;52158.66;5030916;28;20136;-77
2021/08/23 10:12:45;;;;;;;;;;;;;;;-144.99;45.99;52179.06;5029755;28;19963;-77
2021/08/23 10:15:11;;;;;;;;;;;;;;;-144.99;44.64;52177.00;5030082;28;19954;-79
2021/08/23 10:17:38;;;;;;;;;;;;;;;-144.99;44.54;52174.97;5037197;28;20087;-78
2021/08/23 10:20:05;;;;;;;;;;;;;;;-144.99;44.86;52205.53;5045122;28;20316;-79
2021/08/23 10:22:32;;;;;;;;;;;;;;;-144.99;44.75;52177.00;5034228;28;20020;-79
2021/08/23 10:25:01;;;;;;;;;;;;;;;-144.99;45.32;52179.06;5029594;28;20086;-79
2021/08/23 10:27:27;;;;;;;;;;;;;;;-144.99;45.89;52162.75;5029508;28;19959;-78
2021/08/23 10:29:53;;;;;;;;;;;;;;;-144.99;45.06;52146.44;5027699;28;20439;-80
2021/08/23 10:32:20;;;;;;;;;;;;;;;-144.99;44.70;52109.75;5029806;28;19965;-79
2021/08/23 10:34:46;;;;;;;;;;;;;;;-144.99;43.17;52097.53;5038646;28;20015;-76
2021/08/23 10:37:17;;;;;;;;;;;;;;;-144.99;42.82;52134.22;5029140;28;20036;-79
2021/08/23 10:39:44;;;;;;;;;;;;;;;-144.99;42.51;52105.69;5029374;28;19996;-79
2021/08/23 10:42:12;;;;;;;;;;;;;;;-144.99;41.29;52064.91;5029356;28;19991;-79
2021/08/23 10:44:39;;;;;;;;;;;;;;;-144.99;40.78;52097.53;5029894;28;19929;-79
2021/08/23 10:47:06;;;;;;;;;;;;;;;-144.99;40.91;52183.13;5028039;28;19925;-78
2021/08/23 10:49:40;;;;;;;;;;;;;;;-144.99;41.86;52203.50;5032083;28;19933;-79
2021/08/23 10:52:07;;;;;;;;;;;;;;;-144.99;41.02;52105.69;5040090;28;19925;-78
2021/08/23 10:54:35;;;;;;;;;;;;;;;-144.99;41.68;52244.28;5029430;28;19969;-78
2021/08/23 10:57:05;;;;;;;;;;;;;;;-144.99;41.77;52234.09;5031647;28;19925;-79
2021/08/23 10:59:43;;;;;;;;;;;;;;;-144.99;41.71;52054.72;5029061;28;20333;-79
2021/08/23 11:02:11;;;;;;;;;;;;;;;-144.99;41.86;52081.22;5017484;28;19951;-77
2021/08/23 11:04:39;;;;;;;;;;;;;;;-144.99;41.64;52040.47;5031697;28;20392;-77
2021/08/23 11:07:06;;;;;;;;;;;;;;;-144.99;40.63;52042.50;5023480;28;19964;-79
2021/08/23 11:09:33;;;;;;;;;;;;;;;-144.99;40.78;52003.78;5033679;28;20381;-77
2021/08/23 11:12:06;;;;;;;;;;;;;;;-144.99;40.76;52054.72;5028762;28;19952;-78
2021/08/23 11:14:41;;;;;;;;;;;;;;;-144.99;39.99;52126.06;5029207;28;20036;-79
2021/08/23 11:17:09;;;;;;;;;;;;;;;-144.99;39.21;51987.47;5032458;28;20157;-77
2021/08/23 11:19:38;;;;;;;;;;;;;;;-144.99;38.70;52073.06;5030393;28;19964;-78
2021/08/23 11:22:05;;;;;;;;;;;;;;;-144.99;38.46;51995.63;5037390;28;19925;-78
2021/08/23 11:24:32;;;;;;;;;;;;;;;-144.99;38.73;51995.63;5029042;28;20227;-76
2021/08/23 11:27:00;;;;;;;;;;;;;;;-144.99;38.17;52020.09;5028782;28;20313;-78
2021/08/23 11:29:27;;;;;;;;;;;;;;;-144.99;37.60;52097.53;5026113;28;20428;-78
2021/08/23 11:31:57;;;;;;;;;;;;;;;-144.99;37.29;52048.63;5028343;28;20292;-77
2021/08/23 11:34:26;;;;;;;;;;;;;;;-144.99;36.99;52020.09;5036909;28;19951;-78
2021/08/23 11:36:53;;;;;;;;;;;;;;;-144.99;37.31;52009.91;5028172;28;20424;-77
2021/08/23 11:39:19;;;;;;;;;;;;;;;-144.99;37.23;51991.56;5027442;28;20363;-77
2021/08/23 11:41:55;;;;;;;;;;;;;;;-144.99;37.30;52020.09;5027759;28;19926;-76
2021/08/23 11:44:22;;;;;;;;;;;;;;;-144.99;37.13;52003.78;5028986;28;19929;-78
2021/08/23 11:46:53;;;;;;;;;;;;;;;-144.99;37.45;51999.69;5027800;28;19935;-80
2021/08/23 11:49:27;;;;;;;;;;;;;;;-144.99;37.21;51983.41;5023488;28;20023;-77
2021/08/23 11:51:54;;;;;;;;;;;;;;;-144.99;36.81;51967.09;5040170;28;20268;-77
2021/08/23 11:54:20;;;;;;;;;;;;;;;-144.99;36.20;51991.56;5028538;28;20060;-77
2021/08/23 11:56:47;;;;;;;;;;;;;;;-144.99;36.60;51954.88;5030303;28;20016;-77
2021/08/23 11:59:13;;;;;;;;;;;;;;;-144.99;36.32;51975.25;5027552;28;19932;-76
2021/08/23 12:01:40;;;;;;;;;;;;;;;-144.99;35.79;51991.56;5015987;28;19929;-78
2021/08/23 12:04:06;;;;;;;;;;;;;;;-144.99;35.93;52003.78;5028140;28;19928;-78
2021/08/23 12:06:35;;;;;;;;;;;;;;;-144.99;36.81;52024.16;5026889;28;20027;-76
2021/08/23 12:09:02;;;;;;;;;;;;;;;-144.99;36.06;51999.69;5028642;28;19952;-76
2021/08/23 12:11:29;;;;;;;;;;;;;;;-144.99;35.20;51995.63;5028317;28;20373;-78
2021/08/23 12:13:55;;;;;;;;;;;;;;;-144.99;35.85;51993.59;5028355;28;20079;-78
2021/08/23 12:16:32;;;;;;;;;;;;;;;-144.99;35.52;51987.47;5027715;28;19929;-78
2021/08/23 12:19:06;;;;;;;;;;;;;;;-144.99;36.15;51979.31;5027255;28;19935;-79
2021/08/23 12:21:33;;;;;;;;;;;;;;;-144.99;35.54;51975.25;5036838;28;20240;-77